createdAt,value
2022-08-10T00:00:03.937Z,98820.00
2022-08-10T00:02:31.908Z,98824.00
2022-08-10T00:04:59.773Z,98829.00
2022-08-10T00:07:28.135Z,98828.00
2022-08-10T00:09:57.303Z,98833.00
2022-08-10T00:12:53.877Z,98827.00
2022-08-10T00:15:44.653Z,98826.00
2022-08-10T00:18:03.556Z,98833.00
2022-08-10T00:20:31.350Z,98827.00
2022-08-10T00:22:59.219Z,98830.00
2022-08-10T00:25:28.600Z,98828.00
2022-08-10T00:28:03.536Z,98822.00
2022-08-10T00:30:32.150Z,98824.00
2022-08-10T00:33:00.031Z,98814.00
2022-08-10T00:35:27.946Z,98814.00
2022-08-10T00:37:57.781Z,98816.00
2022-08-10T00:40:35.164Z,98816.00
2022-08-10T00:43:07.875Z,98811.00
2022-08-10T00:45:36.142Z,98818.00
2022-08-10T00:48:04.840Z,98812.00
2022-08-10T00:50:33.120Z,98811.00
2022-08-10T00:53:01.097Z,98807.00
2022-08-10T00:55:29.473Z,98801.00
2022-08-10T00:57:57.956Z,98806.00
2022-08-10T01:00:28.109Z,98812.00
2022-08-10T01:02:56.114Z,98801.00
2022-08-10T01:05:24.371Z,98804.00
2022-08-10T01:08:21.779Z,98808.00
2022-08-10T01:11:05.961Z,98814.00
2022-08-10T01:14:02.054Z,98805.00
2022-08-10T01:16:37.924Z,98806.00
2022-08-10T01:19:23.351Z,98810.00
2022-08-10T01:22:21.335Z,98808.00
2022-08-10T01:25:22.278Z,98809.00
2022-08-10T01:28:05.659Z,98807.00
2022-08-10T01:30:37.117Z,98802.00
2022-08-10T01:33:10.629Z,98808.00
2022-08-10T01:35:48.771Z,98807.00
2022-08-10T01:38:21.873Z,98808.00
2022-08-10T01:40:55.635Z,98810.00
2022-08-10T01:43:29.658Z,98813.00
2022-08-10T01:46:02.285Z,98808.00
2022-08-10T01:48:35.733Z,98811.00
2022-08-10T01:51:15.382Z,98803.00
2022-08-10T01:53:51.858Z,98800.00
2022-08-10T01:56:23.360Z,98799.00
2022-08-10T01:58:58.925Z,98797.00
2022-08-10T02:01:33.463Z,98802.00
2022-08-10T02:04:08.008Z,98803.00
2022-08-10T02:06:41.079Z,98803.00
2022-08-10T02:09:12.536Z,98799.00
2022-08-10T02:12:06.611Z,98805.00
2022-08-10T02:14:34.602Z,98799.00
2022-08-10T02:17:08.789Z,98803.00
2022-08-10T02:19:40.468Z,98806.00
2022-08-10T02:22:38.273Z,98802.00
2022-08-10T02:25:01.305Z,98798.00
2022-08-10T02:27:30.573Z,98796.00
2022-08-10T02:29:59.962Z,98804.00
2022-08-10T02:32:36.604Z,98798.00
2022-08-10T02:35:15.534Z,98801.00
2022-08-10T02:37:55.997Z,98803.00
2022-08-10T02:45:01.820Z,98798.00
2022-08-10T02:45:20.596Z,98800.00
2022-08-10T02:46:20.951Z,98797.00
2022-08-10T02:49:00.654Z,98794.00
2022-08-10T02:52:07.023Z,98797.00
2022-08-10T02:54:40.501Z,98803.00
2022-08-10T02:57:17.271Z,98809.00
2022-08-10T02:59:51.394Z,98797.00
2022-08-10T03:02:27.748Z,98792.00
2022-08-10T03:05:04.150Z,98803.00
2022-08-10T03:07:43.535Z,98812.00
2022-08-10T03:10:18.377Z,98804.00
2022-08-10T03:12:51.947Z,98808.00
2022-08-10T03:15:22.451Z,98799.00
2022-08-10T03:17:58.266Z,98798.00
2022-08-10T03:20:39.551Z,98802.00
2022-08-10T03:23:13.964Z,98804.00
2022-08-10T03:25:53.727Z,98810.00
2022-08-10T03:28:24.784Z,98816.00
2022-08-10T03:30:54.740Z,98806.00
2022-08-10T03:33:25.199Z,98807.00
2022-08-10T03:36:43.986Z,98806.00
2022-08-10T03:38:46.000Z,98799.00
2022-08-10T03:41:17.501Z,98804.00
2022-08-10T03:43:50.247Z,98805.00
2022-08-10T03:46:25.479Z,98811.00
2022-08-10T03:48:57.943Z,98804.00
2022-08-10T03:51:31.669Z,98812.00
2022-08-10T03:54:06.116Z,98808.00
2022-08-10T03:56:38.643Z,98811.00
2022-08-10T03:59:08.981Z,98808.00
2022-08-10T04:02:44.140Z,98818.00
2022-08-10T04:04:26.151Z,98813.00
2022-08-10T04:06:57.668Z,98817.00
2022-08-10T04:09:43.107Z,98826.00
2022-08-10T04:12:16.586Z,98830.00
2022-08-10T04:14:50.007Z,98835.00
2022-08-10T04:17:56.371Z,98833.00
2022-08-10T04:20:15.064Z,98839.00
2022-08-10T04:22:46.707Z,98839.00
2022-08-10T04:25:17.047Z,98834.00
2022-08-10T04:27:46.171Z,98843.00
2022-08-10T04:30:14.409Z,98836.00
2022-08-10T04:32:44.254Z,98829.00
2022-08-10T04:35:13.344Z,98838.00
2022-08-10T04:37:47.597Z,98826.00
2022-08-10T04:40:29.393Z,98826.00
2022-08-10T04:43:11.766Z,98822.00
2022-08-10T04:45:48.647Z,98819.00
2022-08-10T04:48:41.200Z,98818.00
2022-08-10T04:51:10.710Z,98823.00
2022-08-10T04:54:02.973Z,98825.00
2022-08-10T04:56:32.727Z,98818.00
2022-08-10T04:59:00.757Z,98820.00
2022-08-10T05:02:13.533Z,98823.00
2022-08-10T05:04:35.921Z,98819.00
2022-08-10T05:07:05.610Z,98824.00
2022-08-10T05:10:00.508Z,98828.00
2022-08-10T05:12:22.570Z,98834.00
2022-08-10T05:14:52.002Z,98835.00
2022-08-10T05:17:20.257Z,98829.00
2022-08-10T05:20:04.854Z,98832.00
2022-08-10T05:22:36.984Z,98840.00
2022-08-10T05:25:08.263Z,98837.00
2022-08-10T05:27:35.997Z,98846.00
2022-08-10T05:30:05.929Z,98841.00
2022-08-10T05:32:56.361Z,98843.00
2022-08-10T05:35:22.706Z,98843.00
2022-08-10T05:38:13.035Z,98845.00
2022-08-10T05:40:46.525Z,98843.00
2022-08-10T05:43:16.884Z,98854.00
2022-08-10T05:46:19.266Z,98843.00
2022-08-10T05:48:54.600Z,98842.00
2022-08-10T05:51:21.443Z,98833.00
2022-08-10T05:54:03.320Z,98837.00
2022-08-10T05:56:55.828Z,98842.00
2022-08-10T06:00:31.077Z,98835.00
2022-08-10T06:02:33.697Z,98838.00
2022-08-10T06:05:08.656Z,98839.00
2022-08-10T06:07:41.572Z,98834.00
2022-08-10T06:10:31.354Z,98845.00
2022-08-10T06:13:29.969Z,98843.00
2022-08-10T06:16:04.361Z,98840.00
2022-08-10T06:18:33.274Z,98847.00
2022-08-10T06:21:01.568Z,98842.00
2022-08-10T06:23:31.455Z,98848.00
2022-08-10T06:26:11.503Z,98847.00
2022-08-10T06:29:03.173Z,98851.00
2022-08-10T06:31:48.820Z,98850.00
2022-08-10T06:34:23.540Z,98854.00
2022-08-10T06:36:54.014Z,98853.00
2022-08-10T06:39:33.655Z,98855.00
2022-08-10T06:42:16.127Z,98854.00
2022-08-10T06:44:55.436Z,98845.00
2022-08-10T06:47:31.003Z,98846.00
2022-08-10T06:50:09.277Z,98854.00
2022-08-10T06:52:39.265Z,98851.00
2022-08-10T06:55:16.928Z,98858.00
2022-08-10T06:57:59.428Z,98848.00
2022-08-10T07:00:34.380Z,98850.00
2022-08-10T07:03:09.684Z,98854.00
2022-08-10T07:05:46.889Z,98849.00
2022-08-10T07:08:20.453Z,98842.00
2022-08-10T07:10:49.159Z,98842.00
2022-08-10T07:14:16.814Z,98840.00
2022-08-10T07:16:14.314Z,98842.00
2022-08-10T07:18:45.483Z,98834.00
2022-08-10T07:21:15.652Z,98837.00
2022-08-10T07:23:57.273Z,98839.00
2022-08-10T07:26:29.871Z,98838.00
2022-08-10T07:29:00.381Z,98833.00
2022-08-10T07:31:55.548Z,98823.00
2022-08-10T07:34:29.323Z,98829.00
2022-08-10T07:37:03.840Z,98827.00
2022-08-10T07:40:03.981Z,98829.00
2022-08-10T07:42:28.552Z,98826.00
2022-08-10T07:44:59.972Z,98818.00
2022-08-10T07:47:53.647Z,98830.00
2022-08-10T07:50:26.543Z,98833.00
2022-08-10T07:53:02.675Z,98823.00
2022-08-10T07:56:04.465Z,98830.00
2022-08-10T07:58:30.876Z,98826.00
2022-08-10T08:01:01.169Z,98828.00
2022-08-10T08:03:33.881Z,98826.00
2022-08-10T08:06:09.016Z,98825.00
2022-08-10T08:08:43.759Z,98827.00
2022-08-10T08:11:25.548Z,98805.00
2022-08-10T08:13:56.197Z,98818.00
2022-08-10T08:16:25.623Z,98829.00
2022-08-10T08:19:23.894Z,98819.00
2022-08-10T08:24:06.834Z,98810.00
2022-08-10T08:24:39.032Z,98818.00
2022-08-10T08:27:07.851Z,98832.00
2022-08-10T08:29:39.831Z,98826.00
2022-08-10T08:32:09.472Z,98822.00
2022-08-10T08:34:42.774Z,98818.00
2022-08-10T08:37:13.318Z,98829.00
2022-08-10T08:40:02.962Z,98823.00
2022-08-10T08:43:13.429Z,98833.00
2022-08-10T08:46:20.804Z,98826.00
2022-08-10T08:49:41.398Z,98823.00
2022-08-10T08:52:30.441Z,98828.00
2022-08-10T08:56:03.922Z,98831.00
2022-08-10T08:58:31.347Z,98822.00
2022-08-10T09:01:20.431Z,98819.00
2022-08-10T09:04:24.919Z,98830.00
2022-08-10T09:08:01.079Z,98820.00
2022-08-10T09:10:11.138Z,98831.00
2022-08-10T09:12:52.644Z,98822.00
2022-08-10T09:15:39.543Z,98826.00
2022-08-10T09:18:20.620Z,98817.00
2022-08-10T09:20:56.264Z,98815.00
2022-08-10T09:24:01.791Z,98811.00
2022-08-10T09:26:32.488Z,98816.00
2022-08-10T09:29:12.515Z,98822.00
2022-08-10T09:33:06.178Z,98817.00
2022-08-10T09:36:22.958Z,98815.00
2022-08-10T09:38:01.810Z,98813.00
2022-08-10T09:40:59.955Z,98809.00
2022-08-10T09:43:44.705Z,98820.00
2022-08-10T09:46:27.620Z,98804.00
2022-08-10T09:49:07.967Z,98811.00
2022-08-10T09:51:47.905Z,98802.00
2022-08-10T09:54:48.816Z,98804.00
2022-08-10T09:57:44.189Z,98798.00
2022-08-10T10:00:18.788Z,98801.00
2022-08-10T10:03:09.780Z,98795.00
2022-08-10T10:05:52.412Z,98791.00
2022-08-10T10:08:33.336Z,98792.00
2022-08-10T10:11:18.900Z,98783.00
2022-08-10T10:14:03.491Z,98787.00
2022-08-10T10:16:49.240Z,98792.00
2022-08-10T10:19:43.581Z,98788.00
2022-08-10T10:22:41.856Z,98774.00
2022-08-10T10:25:22.974Z,98785.00
2022-08-10T10:28:03.657Z,98786.00
2022-08-10T10:30:39.700Z,98776.00
2022-08-10T10:33:19.422Z,98768.00
2022-08-10T10:35:54.128Z,98771.00
2022-08-10T10:38:30.907Z,98767.00
2022-08-10T10:41:09.217Z,98770.00
2022-08-10T10:43:54.267Z,98771.00
2022-08-10T10:46:45.209Z,98771.00
2022-08-10T10:49:27.933Z,98766.00
2022-08-10T10:52:05.854Z,98772.00
2022-08-10T10:54:45.897Z,98768.00
2022-08-10T10:57:58.516Z,98772.00
2022-08-10T11:00:15.921Z,98765.00
2022-08-10T11:03:02.445Z,98762.00
2022-08-10T11:05:44.066Z,98764.00
2022-08-10T11:08:19.852Z,98759.00
2022-08-10T11:11:07.960Z,98760.00
2022-08-10T11:14:26.842Z,98748.00
2022-08-10T11:17:03.811Z,98748.00
2022-08-10T11:20:01.491Z,98758.00
2022-08-10T11:22:40.215Z,98750.00
2022-08-10T11:25:16.960Z,98731.00
2022-08-10T11:27:54.005Z,98747.00
2022-08-10T11:30:30.229Z,98742.00
2022-08-10T11:33:31.061Z,98747.00
2022-08-10T11:36:04.917Z,98746.00
2022-08-10T11:39:10.769Z,98741.00
2022-08-10T11:42:09.402Z,98741.00
2022-08-10T11:44:38.613Z,98737.00
2022-08-10T11:47:13.999Z,98743.00
2022-08-10T11:49:52.207Z,98726.00
2022-08-10T11:52:33.940Z,98726.00
2022-08-10T11:55:11.004Z,98720.00
2022-08-10T11:57:53.505Z,98728.00
2022-08-10T12:00:29.618Z,98719.00
2022-08-10T12:03:05.588Z,98716.00
2022-08-10T12:05:52.617Z,98721.00
2022-08-10T12:10:06.815Z,98708.00
2022-08-10T12:11:24.530Z,98721.00
2022-08-10T12:14:22.030Z,98708.00
2022-08-10T12:17:00.808Z,98710.00
2022-08-10T12:19:59.345Z,98715.00
2022-08-10T12:22:35.295Z,98710.00
2022-08-10T12:25:10.252Z,98702.00
2022-08-10T12:27:44.285Z,98700.00
2022-08-10T12:30:16.896Z,98697.00
2022-08-10T12:33:03.020Z,98694.00
2022-08-10T12:35:51.602Z,98693.00
2022-08-10T12:38:40.381Z,98693.00
2022-08-10T12:41:43.752Z,98693.00
2022-08-10T12:44:14.444Z,98693.00
2022-08-10T12:46:55.929Z,98692.00
2022-08-10T12:49:33.276Z,98690.00
2022-08-10T12:52:14.362Z,98687.00
2022-08-10T12:54:44.347Z,98687.00
2022-08-10T12:57:16.768Z,98682.00
2022-08-10T12:59:48.566Z,98671.00
2022-08-10T13:02:24.205Z,98679.00
2022-08-10T13:05:05.491Z,98675.00
2022-08-10T13:08:27.308Z,98673.00
2022-08-10T13:10:24.300Z,98663.00
2022-08-10T13:12:57.855Z,98669.00
2022-08-10T13:15:49.796Z,98669.00
2022-08-10T13:18:28.027Z,98674.00
2022-08-10T13:21:19.628Z,98660.00
2022-08-10T13:24:03.415Z,98661.00
2022-08-10T13:26:38.684Z,98668.00
2022-08-10T13:29:33.153Z,98656.00
2022-08-10T13:32:09.867Z,98656.00
2022-08-10T13:34:46.594Z,98665.00
2022-08-10T13:37:23.794Z,98662.00
2022-08-10T13:39:59.713Z,98651.00
2022-08-10T13:42:33.631Z,98652.00
2022-08-10T13:45:10.951Z,98650.00
2022-08-10T13:47:48.774Z,98655.00
2022-08-10T13:50:35.475Z,98649.00
2022-08-10T13:53:15.281Z,98641.00
2022-08-10T13:55:53.849Z,98638.00
2022-08-10T13:58:27.340Z,98625.00
2022-08-10T14:00:57.827Z,98635.00
2022-08-10T14:03:28.004Z,98638.00
2022-08-10T14:05:59.444Z,98638.00
2022-08-10T14:08:34.698Z,98638.00
2022-08-10T14:11:11.263Z,98630.00
2022-08-10T14:13:46.374Z,98622.00
2022-08-10T14:16:16.427Z,98607.00
2022-08-10T14:18:45.945Z,98622.00
2022-08-10T14:21:15.258Z,98621.00
2022-08-10T14:23:52.659Z,98614.00
2022-08-10T14:26:26.088Z,98614.00
2022-08-10T14:28:59.105Z,98615.00
2022-08-10T14:31:37.135Z,98617.00
2022-08-10T14:34:08.859Z,98613.00
2022-08-10T14:36:44.992Z,98611.00
2022-08-10T14:39:24.356Z,98605.00
2022-08-10T14:42:01.294Z,98599.00
2022-08-10T14:44:48.383Z,98603.00
2022-08-10T14:47:53.906Z,98601.00
2022-08-10T14:50:32.218Z,98603.00
2022-08-10T14:53:09.784Z,98606.00
2022-08-10T14:55:57.559Z,98592.00
2022-08-10T14:58:32.921Z,98599.00
2022-08-10T15:01:03.690Z,98590.00
2022-08-10T15:04:00.768Z,98592.00
2022-08-10T15:06:32.881Z,98594.00
2022-08-10T15:09:12.265Z,98593.00
2022-08-10T15:12:13.940Z,98585.00
2022-08-10T15:14:44.948Z,98583.00
2022-08-10T15:17:23.203Z,98578.00
2022-08-10T15:20:03.419Z,98574.00
2022-08-10T15:22:38.070Z,98585.00
2022-08-10T15:25:18.903Z,98572.00
2022-08-10T15:28:05.053Z,98572.00
2022-08-10T15:30:42.776Z,98569.00
2022-08-10T15:33:57.511Z,98575.00
2022-08-10T15:37:36.078Z,98569.00
2022-08-10T15:40:24.694Z,98563.00
2022-08-10T15:43:00.123Z,98565.00
2022-08-10T15:45:29.229Z,98555.00
2022-08-10T15:48:14.775Z,98554.00
2022-08-10T15:50:48.843Z,98554.00
2022-08-10T15:53:28.796Z,98546.00
2022-08-10T15:56:03.623Z,98556.00
2022-08-10T15:58:40.706Z,98550.00
2022-08-10T16:02:04.366Z,98540.00
2022-08-10T16:04:08.287Z,98554.00
2022-08-10T16:06:44.962Z,98548.00
2022-08-10T16:10:11.001Z,98555.00
2022-08-10T16:12:17.043Z,98552.00
2022-08-10T16:14:50.506Z,98554.00
2022-08-10T16:17:21.814Z,98555.00
2022-08-10T16:19:54.408Z,98543.00
2022-08-10T16:22:36.167Z,98545.00
2022-08-10T16:25:14.814Z,98543.00
2022-08-10T16:27:44.932Z,98538.00
2022-08-10T16:30:15.248Z,98546.00
2022-08-10T16:32:45.020Z,98536.00
2022-08-10T16:35:21.079Z,98544.00
2022-08-10T16:37:58.017Z,98548.00
2022-08-10T16:40:29.867Z,98545.00
2022-08-10T16:43:00.790Z,98540.00
2022-08-10T16:45:34.186Z,98538.00
2022-08-10T16:48:04.832Z,98538.00
2022-08-10T16:50:38.648Z,98541.00
2022-08-10T16:53:11.787Z,98534.00
2022-08-10T16:55:50.506Z,98530.00
2022-08-10T16:58:28.581Z,98536.00
2022-08-10T17:01:05.654Z,98538.00
2022-08-10T17:04:09.684Z,98537.00
2022-08-10T17:06:32.261Z,98545.00
2022-08-10T17:09:04.124Z,98538.00
2022-08-10T17:11:35.822Z,98538.00
2022-08-10T17:14:09.834Z,98545.00
2022-08-10T17:16:42.914Z,98538.00
2022-08-10T17:19:15.811Z,98535.00
2022-08-10T17:21:52.356Z,98539.00
2022-08-10T17:24:25.617Z,98541.00
2022-08-10T17:26:57.468Z,98537.00
2022-08-10T17:29:58.795Z,98541.00
2022-08-10T17:32:31.329Z,98541.00
2022-08-10T17:35:02.554Z,98542.00
2022-08-10T17:37:38.267Z,98541.00
2022-08-10T17:40:12.318Z,98546.00
2022-08-10T17:42:45.693Z,98550.00
2022-08-10T17:45:20.904Z,98550.00
2022-08-10T17:48:10.285Z,98545.00
2022-08-10T17:50:41.818Z,98540.00
2022-08-10T17:53:16.735Z,98539.00
2022-08-10T17:55:47.743Z,98544.00
2022-08-10T17:58:20.248Z,98538.00
2022-08-10T18:00:51.914Z,98539.00
2022-08-10T18:03:25.735Z,98546.00
2022-08-10T18:05:56.829Z,98542.00
2022-08-10T18:08:28.851Z,98544.00
2022-08-10T18:10:59.685Z,98549.00
2022-08-10T18:13:55.702Z,98551.00
2022-08-10T18:16:25.946Z,98547.00
2022-08-10T18:19:00.985Z,98551.00
2022-08-10T18:21:32.144Z,98556.00
2022-08-10T18:24:07.694Z,98556.00
2022-08-10T18:26:38.272Z,98563.00
2022-08-10T18:29:12.428Z,98564.00
2022-08-10T18:31:45.495Z,98559.00
2022-08-10T18:34:20.823Z,98563.00
2022-08-10T18:36:51.296Z,98564.00
2022-08-10T18:39:25.764Z,98563.00
2022-08-10T18:42:00.561Z,98569.00
2022-08-10T18:44:41.035Z,98569.00
2022-08-10T18:47:17.239Z,98574.00
2022-08-10T18:50:06.447Z,98568.00
2022-08-10T18:52:37.391Z,98574.00
2022-08-10T18:55:22.886Z,98574.00
2022-08-10T18:58:42.659Z,98580.00
2022-08-10T19:01:33.489Z,98583.00
2022-08-10T19:04:25.059Z,98585.00
2022-08-10T19:07:36.151Z,98582.00
2022-08-10T19:10:15.164Z,98592.00
2022-08-10T19:12:53.663Z,98590.00
2022-08-10T19:15:33.908Z,98599.00
2022-08-10T19:18:23.533Z,98598.00
2022-08-10T19:20:59.336Z,98598.00
2022-08-10T19:23:52.411Z,98602.00
2022-08-10T19:26:43.723Z,98601.00
2022-08-10T19:30:09.896Z,98601.00
2022-08-10T19:32:37.104Z,98599.00
2022-08-10T19:35:11.988Z,98600.00
2022-08-10T19:38:00.029Z,98606.00
2022-08-10T19:40:44.318Z,98591.00
2022-08-10T19:43:59.198Z,98594.00
2022-08-10T19:46:28.411Z,98597.00
2022-08-10T19:49:09.420Z,98591.00
2022-08-10T19:51:49.821Z,98597.00
2022-08-10T19:54:31.026Z,98598.00
2022-08-10T19:57:12.128Z,98600.00
2022-08-10T20:00:15.099Z,98597.00
2022-08-10T20:02:53.620Z,98598.00
2022-08-10T20:05:32.732Z,98605.00
2022-08-10T20:08:08.664Z,98600.00
2022-08-10T20:10:47.717Z,98608.00
2022-08-10T20:13:26.651Z,98605.00
2022-08-10T20:16:01.929Z,98604.00
2022-08-10T20:18:37.507Z,98611.00
2022-08-10T20:21:13.734Z,98613.00
2022-08-10T20:23:55.122Z,98616.00
2022-08-10T20:26:27.971Z,98622.00
2022-08-10T20:29:16.223Z,98617.00
2022-08-10T20:32:04.663Z,98614.00
2022-08-10T20:34:44.276Z,98617.00
2022-08-10T20:37:41.283Z,98618.00
2022-08-10T20:40:23.586Z,98621.00
2022-08-10T20:43:09.041Z,98620.00
2022-08-10T20:46:07.341Z,98608.00
2022-08-10T20:48:44.922Z,98613.00
2022-08-10T20:51:16.178Z,98608.00
2022-08-10T20:53:51.013Z,98610.00
2022-08-10T20:56:33.954Z,98618.00
2022-08-10T20:59:21.247Z,98612.00
2022-08-10T21:02:10.955Z,98607.00
2022-08-10T21:04:52.891Z,98598.00
2022-08-10T21:08:01.565Z,98601.00
2022-08-10T21:11:05.992Z,98603.00
2022-08-10T21:13:54.796Z,98603.00
2022-08-10T21:16:47.621Z,98594.00
2022-08-10T21:19:55.904Z,98597.00
2022-08-10T21:22:31.507Z,98594.00
2022-08-10T21:25:07.042Z,98597.00
2022-08-10T21:28:14.174Z,98600.00
2022-08-10T21:31:16.270Z,98605.00
2022-08-10T21:34:11.443Z,98604.00
2022-08-10T21:36:54.957Z,98604.00
2022-08-10T21:39:48.432Z,98598.00
2022-08-10T21:42:53.229Z,98603.00
2022-08-10T21:45:59.309Z,98599.00
2022-08-10T21:48:57.345Z,98601.00
2022-08-10T21:52:03.754Z,98603.00
2022-08-10T21:55:03.245Z,98613.00
2022-08-10T21:58:08.816Z,98613.00
2022-08-10T22:01:05.622Z,98614.00
2022-08-10T22:03:58.750Z,98612.00
2022-08-10T22:06:52.486Z,98607.00
2022-08-10T22:09:47.215Z,98613.00
2022-08-10T22:12:46.961Z,98609.00
2022-08-10T22:18:53.844Z,98599.00
2022-08-10T22:22:04.516Z,98589.00
2022-08-10T22:25:16.700Z,98595.00
2022-08-10T22:28:17.745Z,98593.00
2022-08-10T22:31:27.266Z,98603.00
2022-08-10T22:31:30.970Z,98599.00
2022-08-10T22:34:38.172Z,98584.00
2022-08-10T22:37:47.681Z,98592.00
2022-08-10T22:40:39.053Z,98581.00
2022-08-10T22:43:36.429Z,98585.00
2022-08-10T22:46:36.360Z,98588.00
2022-08-10T22:49:03.439Z,98598.00
2022-08-10T22:51:54.201Z,98596.00
2022-08-10T22:54:46.396Z,98596.00
2022-08-10T22:57:34.364Z,98590.00
2022-08-10T23:00:15.063Z,98591.00
2022-08-10T23:02:52.793Z,98590.00
2022-08-10T23:05:32.082Z,98584.00
2022-08-10T23:08:11.819Z,98588.00
2022-08-10T23:11:05.554Z,98592.00
2022-08-10T23:13:38.649Z,98598.00
2022-08-10T23:16:34.883Z,98596.00
2022-08-10T23:19:11.390Z,98590.00
2022-08-10T23:22:03.424Z,98594.00
2022-08-10T23:24:38.537Z,98588.00
2022-08-10T23:27:12.963Z,98590.00
2022-08-10T23:30:10.880Z,98585.00
2022-08-10T23:32:49.703Z,98584.00
2022-08-10T23:36:31.841Z,98586.00
2022-08-10T23:38:13.189Z,98587.00
2022-08-10T23:40:45.345Z,98577.00
2022-08-10T23:43:19.169Z,98583.00
2022-08-10T23:45:54.520Z,98576.00
2022-08-10T23:48:29.535Z,98575.00
2022-08-10T23:51:01.367Z,98576.00
2022-08-10T23:53:34.385Z,98581.00
2022-08-10T23:56:07.797Z,98576.00
2022-08-10T23:58:42.986Z,98579.00
